Time;durP1;ratioP1;P1;durP2;ratioP2;P2;SDS_P1;SDS_P2;PMS_P1;PMS_P2;Temp;Humidity;BMP_temperature;BMP_pressure;BME280_temperature;BME280_humidity;BME280_pressure;Samples;Min_cycle;Max_cycle;Signal;HPM_P1;HPM_P2
2022/10/03 00:01:39;;;;;;;19.33;5.05;;;12.10;99.90;;;;;;4132144;28;20581;-93
2022/10/03 00:03:46;;;;;;;27.25;5.72;;;12.10;99.90;;;;;;4148300;28;20184;-90
2022/10/03 00:06:01;;;;;;;16.08;5.13;;;12.10;99.90;;;;;;4148308;28;20267;-92
2022/10/03 00:08:29;;;;;;;11.07;5.05;;;12.10;99.90;;;;;;4131951;28;20170;-92
2022/10/03 00:10:36;;;;;;;13.73;4.75;;;12.10;99.90;;;;;;4134899;28;20279;-92
2022/10/03 00:12:46;;;;;;;16.70;4.75;;;12.00;99.90;;;;;;4134931;28;20224;-93
2022/10/03 00:15:02;;;;;;;19.55;4.43;;;11.90;99.90;;;;;;4135241;28;20229;-92
2022/10/03 00:17:20;;;;;;;19.67;6.03;;;11.90;99.90;;;;;;4151512;28;20173;-92
2022/10/03 00:20:25;;;;;;;21.73;5.55;;;11.90;99.90;;;;;;4135162;28;20189;-91
2022/10/03 00:22:59;;;;;;;14.00;5.45;;;11.90;99.90;;;;;;4134847;28;20220;-92
2022/10/03 00:25:06;;;;;;;20.17;5.07;;;11.80;99.90;;;;;;4134781;28;20169;-91
2022/10/03 00:27:17;;;;;;;31.70;7.05;;;11.70;99.90;;;;;;4135329;28;20511;-91
2022/10/03 00:29:42;;;;;;;21.85;6.13;;;11.60;99.90;;;;;;4134778;28;20673;-91
2022/10/03 00:31:53;;;;;;;18.92;5.75;;;11.60;99.90;;;;;;4134748;28;20192;-92
2022/10/03 00:34:07;;;;;;;22.52;5.57;;;11.60;99.90;;;;;;4151299;28;20169;-91
2022/10/03 00:36:16;;;;;;;25.33;5.53;;;11.60;99.90;;;;;;4135126;28;20178;-92
2022/10/03 00:38:36;;;;;;;21.95;5.68;;;11.50;99.90;;;;;;4151583;28;20204;-93
2022/10/03 00:41:08;;;;;;;16.58;5.13;;;11.50;99.90;;;;;;4135038;28;20279;-91
2022/10/03 00:43:42;;;;;;;18.58;5.35;;;11.60;99.90;;;;;;4150880;28;20180;-92
2022/10/03 00:45:57;;;;;;;20.15;5.32;;;11.50;99.90;;;;;;4143965;28;20186;-92
2022/10/03 00:48:07;;;;;;;23.98;5.57;;;11.50;99.90;;;;;;4155787;28;20185;-93
2022/10/03 00:50:19;;;;;;;20.02;5.18;;;11.50;99.90;;;;;;4134686;28;20197;-92
2022/10/03 00:52:46;;;;;;;19.60;5.47;;;11.50;99.90;;;;;;4150683;28;20212;-92
2022/10/03 00:55:29;;;;;;;17.45;5.43;;;11.50;99.90;;;;;;4150786;28;20625;-91
2022/10/03 00:58:03;;;;;;;17.90;4.78;;;11.50;99.90;;;;;;4123540;28;20185;-92
2022/10/03 01:00:24;;;;;;;24.65;5.18;;;11.50;99.90;;;;;;4140266;28;20215;-92
2022/10/03 01:02:40;;;;;;;27.42;5.10;;;11.50;99.90;;;;;;4150779;28;20181;-91
2022/10/03 01:04:56;;;;;;;18.42;4.90;;;11.50;99.90;;;;;;4150688;28;20181;-93
2022/10/03 01:07:18;;;;;;;20.25;5.05;;;11.50;99.90;;;;;;4150899;28;20200;-92
2022/10/03 01:09:50;;;;;;;13.52;4.70;;;11.50;99.90;;;;;;4134396;28;20248;-91
2022/10/03 01:12:06;;;;;;;20.83;5.40;;;11.60;99.90;;;;;;4150841;28;20644;-92
2022/10/03 01:14:32;;;;;;;18.98;4.85;;;11.60;99.90;;;;;;4134388;28;20174;-92
2022/10/03 01:17:00;;;;;;;13.45;5.03;;;11.50;99.90;;;;;;4134268;28;20177;-91
2022/10/03 01:19:03;;;;;;;25.90;5.00;;;11.50;99.90;;;;;;4133970;28;20165;-91
2022/10/03 01:21:23;;;;;;;22.33;4.90;;;11.50;99.90;;;;;;4133453;28;20302;-92
2022/10/03 01:23:44;;;;;;;18.45;4.63;;;11.50;99.90;;;;;;4150280;28;20208;-94
2022/10/03 01:26:09;;;;;;;17.38;4.53;;;11.50;99.90;;;;;;4134232;28;20181;-92
2022/10/03 01:31:04;;;;;;;14.05;5.07;;;11.50;99.90;;;;;;4150193;28;20213;-93
2022/10/03 01:33:36;;;;;;;15.18;4.43;;;11.40;99.90;;;;;;4134049;28;20213;-90
2022/10/03 01:35:58;;;;;;;10.63;4.65;;;11.40;99.90;;;;;;4134091;28;20188;-89
2022/10/03 01:38:14;;;;;;;16.45;4.22;;;11.40;99.90;;;;;;4134126;28;20235;-92
2022/10/03 01:40:36;;;;;;;17.58;5.07;;;11.30;99.90;;;;;;4133896;28;20189;-92
2022/10/03 01:42:40;;;;;;;20.05;4.70;;;11.30;99.90;;;;;;4134017;28;20177;-92
2022/10/03 01:44:57;;;;;;;20.88;5.13;;;11.20;99.90;;;;;;4134152;28;20181;-94
2022/10/03 01:47:38;;;;;;;13.50;5.00;;;11.20;99.90;;;;;;4133909;28;20554;-92
2022/10/03 01:49:52;;;;;;;16.88;3.97;;;11.20;99.90;;;;;;4133642;28;20203;-93
2022/10/03 01:52:18;;;;;;;12.35;4.30;;;11.20;99.90;;;;;;4133849;28;20301;-91
2022/10/03 01:54:29;;;;;;;22.23;4.90;;;11.20;99.90;;;;;;4133515;28;20610;-92
2022/10/03 01:56:43;;;;;;;18.15;4.25;;;11.20;99.90;;;;;;4133850;28;20234;-91
2022/10/03 01:59:16;;;;;;;17.13;4.70;;;11.30;99.90;;;;;;4133994;28;20189;-93
2022/10/03 02:01:42;;;;;;;19.05;4.57;;;11.30;99.90;;;;;;4133720;28;20232;-94
2022/10/03 02:03:55;;;;;;;12.70;4.50;;;11.20;99.90;;;;;;4133838;28;20205;-92
2022/10/03 02:06:00;;;;;;;18.90;4.78;;;11.30;99.90;;;;;;4133574;28;20206;-92
2022/10/03 02:08:26;;;;;;;17.27;4.20;;;11.30;99.90;;;;;;4133497;28;20272;-91
2022/10/03 02:10:52;;;;;;;16.20;4.20;;;11.20;99.90;;;;;;4133367;28;20763;-92
2022/10/03 02:13:08;;;;;;;17.60;4.95;;;11.10;99.90;;;;;;4133401;28;20216;-91
2022/10/03 02:15:13;;;;;;;12.13;4.07;;;11.10;99.90;;;;;;4133713;28;20178;-91
2022/10/03 02:17:44;;;;;;;15.35;4.63;;;11.10;99.90;;;;;;4149783;28;20185;-91
2022/10/03 02:20:10;;;;;;;12.43;3.85;;;11.10;99.90;;;;;;4147132;28;20263;-92
2022/10/03 02:22:35;;;;;;;14.20;4.07;;;11.10;99.90;;;;;;4133126;28;20200;-92
2022/10/03 02:24:35;;;;;;;11.55;4.55;;;11.10;99.90;;;;;;4133437;28;20178;-94
2022/10/03 02:26:56;;;;;;;17.70;4.32;;;11.00;99.90;;;;;;4149451;28;20211;-94
2022/10/03 02:29:11;;;;;;;16.48;4.60;;;10.90;99.90;;;;;;4133010;28;20169;-91
2022/10/03 02:32:08;;;;;;;18.60;5.13;;;10.80;99.90;;;;;;4133450;28;20178;-91
2022/10/03 02:34:42;;;;;;;17.25;4.65;;;10.80;99.90;;;;;;4100505;28;20240;-92
2022/10/03 02:37:02;;;;;;;20.83;5.40;;;10.90;99.90;;;;;;4069426;29;20285;-91
2022/10/03 02:39:14;;;;;;;21.23;5.30;;;10.90;99.90;;;;;;4092947;28;20185;-91
2022/10/03 02:41:51;;;;;;;20.00;5.13;;;10.90;99.90;;;;;;4133426;28;20169;-91
2022/10/03 02:44:13;;;;;;;17.73;5.95;;;10.90;99.90;;;;;;4133200;28;20173;-91
2022/10/03 02:46:41;;;;;;;18.92;4.82;;;10.90;99.90;;;;;;4133006;28;20224;-91
2022/10/03 02:49:06;;;;;;;18.83;4.70;;;10.90;99.90;;;;;;4133379;28;20634;-90
2022/10/03 02:51:24;;;;;;;16.30;4.35;;;10.90;99.90;;;;;;4132896;28;20184;-91
2022/10/03 02:53:40;;;;;;;13.45;4.88;;;11.00;99.90;;;;;;4133078;28;20312;-91
2022/10/03 02:56:15;;;;;;;15.57;4.43;;;10.90;99.90;;;;;;4132691;28;20165;-91
2022/10/03 02:58:53;;;;;;;14.00;3.97;;;10.90;99.90;;;;;;4132885;28;20220;-92
2022/10/03 03:01:30;;;;;;;8.52;4.07;;;10.90;99.90;;;;;;4132547;28;20280;-93
2022/10/03 03:03:54;;;;;;;10.88;3.90;;;10.90;99.90;;;;;;4132818;28;20611;-92
2022/10/03 03:06:43;;;;;;;10.18;3.80;;;10.70;99.90;;;;;;4132676;28;20178;-93
2022/10/03 03:09:11;;;;;;;15.73;4.53;;;10.60;99.90;;;;;;4137821;28;20232;-91
2022/10/03 03:11:53;;;;;;;12.32;4.90;;;10.50;99.90;;;;;;4140933;28;20236;-92
2022/10/03 03:14:35;;;;;;;15.25;4.30;;;10.40;99.90;;;;;;4111812;28;20240;-94
2022/10/03 03:16:54;;;;;;;15.63;4.25;;;10.40;99.90;;;;;;4084030;29;20274;-92
2022/10/03 03:19:12;;;;;;;10.95;4.47;;;10.50;99.90;;;;;;4123106;28;20181;-91
2022/10/03 03:21:33;;;;;;;14.30;4.57;;;10.50;99.90;;;;;;4132800;28;20174;-92
2022/10/03 03:24:19;;;;;;;19.23;4.65;;;10.60;99.90;;;;;;4132564;28;20204;-91
2022/10/03 03:26:22;;;;;;;9.45;4.55;;;10.60;99.90;;;;;;4132447;28;20630;-94
2022/10/03 03:28:28;;;;;;;7.97;4.53;;;10.60;99.90;;;;;;4132666;28;20185;-91
2022/10/03 03:30:47;;;;;;;11.73;4.00;;;10.60;99.90;;;;;;4132671;28;20208;-92
2022/10/03 03:32:55;;;;;;;8.27;4.05;;;10.70;99.90;;;;;;4132643;28;20213;-91
2022/10/03 03:35:23;;;;;;;8.77;3.80;;;10.60;99.90;;;;;;4133636;28;20186;-91
2022/10/03 03:37:28;;;;;;;10.18;3.95;;;10.60;99.90;;;;;;4132316;28;20244;-92
2022/10/03 03:39:51;;;;;;;7.70;3.92;;;10.60;99.90;;;;;;4132417;28;20208;-92
2022/10/03 03:42:21;;;;;;;9.82;4.10;;;10.60;99.90;;;;;;4132148;28;20546;-92
2022/10/03 03:44:29;;;;;;;11.75;3.88;;;10.50;99.90;;;;;;4116998;28;20280;-91
2022/10/03 03:47:13;;;;;;;10.05;4.00;;;10.50;99.90;;;;;;4132636;28;20192;-94
2022/10/03 03:49:30;;;;;;;8.00;3.53;;;10.50;99.90;;;;;;4148316;28;20268;-93
2022/10/03 03:52:13;;;;;;;9.57;3.85;;;10.50;99.90;;;;;;4132338;28;20169;-93
2022/10/03 03:54:43;;;;;;;11.40;3.53;;;10.40;99.90;;;;;;4112555;28;20205;-92
2022/10/03 03:57:02;;;;;;;13.60;3.67;;;10.30;99.90;;;;;;4126301;28;20188;-93
2022/10/03 03:59:19;;;;;;;14.88;3.50;;;10.30;99.90;;;;;;4132550;28;20255;-92
2022/10/03 04:01:48;;;;;;;6.05;3.13;;;10.30;99.90;;;;;;4132512;28;20180;-92
2022/10/03 04:04:27;;;;;;;9.70;4.10;;;10.30;99.90;;;;;;4132338;28;20203;-91
2022/10/03 04:06:46;;;;;;;8.45;3.58;;;10.30;99.90;;;;;;4148409;28;20665;-91
2022/10/03 04:09:13;;;;;;;11.38;3.83;;;10.30;99.90;;;;;;4131913;28;20181;-95
2022/10/03 04:11:54;;;;;;;7.03;3.35;;;10.30;99.90;;;;;;4148362;28;20183;-91
2022/10/03 04:14:22;;;;;;;6.25;3.25;;;10.30;99.90;;;;;;4132172;28;20373;-91
2022/10/03 04:19:28;;;;;;;10.13;3.28;;;10.20;99.90;;;;;;4148286;28;20235;-91
2022/10/03 04:21:56;;;;;;;5.00;2.78;;;10.10;99.90;;;;;;4131456;28;20181;-91
2022/10/03 04:24:06;;;;;;;15.52;3.20;;;10.00;99.90;;;;;;4131839;28;20181;-91
2022/10/03 04:26:34;;;;;;;12.38;2.80;;;10.00;99.90;;;;;;4131982;28;20185;-92
2022/10/03 04:28:54;;;;;;;4.75;2.85;;;9.90;99.90;;;;;;4131984;28;20182;-91
2022/10/03 04:31:15;;;;;;;3.50;2.50;;;9.90;99.90;;;;;;4132062;28;20236;-91
2022/10/03 04:33:43;;;;;;;10.50;2.55;;;9.90;99.90;;;;;;4131926;28;20304;-92
2022/10/03 04:35:56;;;;;;;13.65;2.78;;;9.90;99.90;;;;;;4132133;28;20301;-91
2022/10/03 04:38:11;;;;;;;15.93;2.92;;;9.90;99.90;;;;;;4131861;28;20196;-91
2022/10/03 04:40:37;;;;;;;11.38;2.92;;;9.80;99.90;;;;;;4131860;28;20704;-92
2022/10/03 04:43:12;;;;;;;6.65;2.70;;;9.80;99.90;;;;;;4131775;28;20209;-92
2022/10/03 04:45:49;;;;;;;14.65;3.17;;;9.70;99.90;;;;;;4131316;28;20248;-90
2022/10/03 04:48:15;;;;;;;14.95;3.25;;;9.70;99.90;;;;;;4131876;28;20209;-91
2022/10/03 04:50:34;;;;;;;11.75;3.00;;;9.70;99.90;;;;;;4131662;28;20198;-92
2022/10/03 04:52:50;;;;;;;9.25;2.90;;;9.70;99.90;;;;;;4131541;28;20213;-92
2022/10/03 04:55:14;;;;;;;9.50;2.70;;;9.70;99.90;;;;;;4131600;28;20268;-91
2022/10/03 04:57:34;;;;;;;7.10;2.83;;;9.70;99.90;;;;;;4151439;28;20684;-91
2022/10/03 04:59:47;;;;;;;8.88;3.15;;;9.70;99.90;;;;;;4134532;28;20193;-91
2022/10/03 05:02:26;;;;;;;11.05;3.05;;;9.60;99.90;;;;;;4134928;28;20177;-90
2022/10/03 05:04:49;;;;;;;7.47;3.03;;;9.60;99.90;;;;;;4134660;28;20177;-91
2022/10/03 05:07:03;;;;;;;7.57;2.88;;;9.60;99.90;;;;;;4134589;28;20193;-91
2022/10/03 05:09:22;;;;;;;6.88;2.88;;;9.60;99.90;;;;;;4134392;28;20249;-92
2022/10/03 05:11:53;;;;;;;4.28;2.90;;;9.60;99.90;;;;;;4134387;28;20275;-93
2022/10/03 05:14:19;;;;;;;3.47;2.70;;;9.60;99.90;;;;;;4134314;28;20190;-95
2022/10/03 05:17:05;;;;;;;5.90;3.28;;;9.50;99.90;;;;;;4134377;28;20586;-94
2022/10/03 05:19:05;;;;;;;9.93;2.85;;;9.60;99.90;;;;;;4134322;28;20213;-94
2022/10/03 05:21:09;;;;;;;6.07;3.20;;;9.50;99.90;;;;;;4134566;28;20185;-93
2022/10/03 05:23:30;;;;;;;10.27;2.92;;;9.50;99.90;;;;;;4150673;28;20213;-94
2022/10/03 05:25:38;;;;;;;9.82;3.53;;;9.60;99.90;;;;;;4150366;28;20264;-94
2022/10/03 05:27:39;;;;;;;10.23;3.00;;;9.60;99.90;;;;;;4134407;28;20173;-94
2022/10/03 05:29:56;;;;;;;10.80;3.03;;;9.60;99.90;;;;;;4134627;28;20213;-94
2022/10/03 05:32:26;;;;;;;3.40;2.88;;;9.50;99.90;;;;;;4134995;28;20181;-92
2022/10/03 05:34:33;;;;;;;7.73;2.90;;;9.50;99.90;;;;;;4145860;28;20177;-92
2022/10/03 05:37:12;;;;;;;7.78;2.97;;;9.50;99.90;;;;;;4135284;28;20189;-92
2022/10/03 05:39:26;;;;;;;4.10;2.92;;;9.40;99.90;;;;;;4134060;28;20177;-94
2022/10/03 05:41:35;;;;;;;5.80;3.17;;;9.40;99.90;;;;;;4134015;28;20650;-94
2022/10/03 05:43:57;;;;;;;6.40;3.17;;;9.40;99.90;;;;;;4134060;28;20174;-94
2022/10/03 05:46:16;;;;;;;8.50;3.08;;;9.40;99.90;;;;;;4133926;28;20277;-95
2022/10/03 05:48:28;;;;;;;14.20;2.88;;;9.40;99.90;;;;;;4134075;28;20324;-94
2022/10/03 05:51:01;;;;;;;17.77;3.17;;;9.40;99.90;;;;;;4149893;28;20231;-94
2022/10/03 05:53:30;;;;;;;17.65;3.13;;;9.30;99.90;;;;;;4150164;28;20221;-94
2022/10/03 05:55:52;;;;;;;17.83;2.80;;;9.30;99.90;;;;;;4133960;28;20165;-95
2022/10/03 05:58:19;;;;;;;13.68;3.00;;;9.20;99.90;;;;;;4133856;28;20625;-94
2022/10/03 06:00:31;;;;;;;8.45;2.55;;;9.30;99.90;;;;;;4133922;28;20201;-95
2022/10/03 06:03:10;;;;;;;5.20;2.45;;;9.30;99.90;;;;;;4133764;28;20177;-96
2022/10/03 06:05:40;;;;;;;11.40;2.65;;;9.30;99.90;;;;;;4150058;28;20701;-94
2022/10/03 06:07:58;;;;;;;3.88;2.80;;;9.30;99.90;;;;;;4133433;28;20602;-94
2022/10/03 06:10:32;;;;;;;3.35;2.88;;;9.40;99.90;;;;;;4149893;28;20200;-94
2022/10/03 06:12:43;;;;;;;4.27;2.80;;;9.30;99.90;;;;;;4133443;28;20225;-93
2022/10/03 06:15:06;;;;;;;3.58;2.88;;;9.30;99.90;;;;;;4133729;28;20188;-94
2022/10/03 06:17:46;;;;;;;12.50;2.95;;;9.40;99.90;;;;;;4133402;28;20676;-94
2022/10/03 06:19:54;;;;;;;9.13;2.75;;;9.40;99.90;;;;;;4133063;28;20252;-95
2022/10/03 06:22:13;;;;;;;13.18;2.80;;;9.40;99.90;;;;;;4149424;28;20603;-95
2022/10/03 06:24:51;;;;;;;8.75;2.95;;;9.40;99.90;;;;;;4133316;28;20386;-93
2022/10/03 06:27:29;;;;;;;12.98;2.95;;;9.50;99.90;;;;;;4133299;28;20185;-94
2022/10/03 06:29:53;;;;;;;9.57;2.60;;;9.60;99.90;;;;;;4133590;28;20205;-91
2022/10/03 06:32:23;;;;;;;7.55;2.80;;;9.80;99.90;;;;;;4133509;28;20269;-94
2022/10/03 06:34:43;;;;;;;18.40;2.90;;;10.10;99.90;;;;;;4133183;28;20184;-94
2022/10/03 06:37:11;;;;;;;10.23;2.72;;;10.30;99.90;;;;;;4132926;28;20531;-93
2022/10/03 06:39:33;;;;;;;10.48;2.28;;;10.70;99.90;;;;;;4149061;28;20181;-94
2022/10/03 06:42:05;;;;;;;11.90;2.50;;;11.00;99.90;;;;;;4149111;28;20177;-93
2022/10/03 06:44:27;;;;;;;13.48;2.30;;;11.20;99.90;;;;;;4133799;28;20165;-93
2022/10/03 06:46:47;;;;;;;12.07;2.13;;;11.30;99.90;;;;;;4132758;28;20224;-95
2022/10/03 06:49:16;;;;;;;18.45;2.47;;;11.60;99.90;;;;;;4133013;28;20228;-92
2022/10/03 06:51:50;;;;;;;20.48;2.05;;;11.90;99.90;;;;;;4127348;28;20197;-95
2022/10/03 06:54:15;;;;;;;9.48;2.03;;;12.30;99.90;;;;;;4125355;28;20228;-93
2022/10/03 06:56:39;;;;;;;8.10;2.00;;;12.80;99.90;;;;;;4132727;28;20182;-93
2022/10/03 06:59:07;;;;;;;6.53;1.80;;;13.20;99.90;;;;;;4132771;28;20177;-94
2022/10/03 07:01:11;;;;;;;5.72;2.08;;;13.50;99.90;;;;;;4148913;28;20169;-91
2022/10/03 07:03:31;;;;;;;9.40;1.80;;;13.90;99.90;;;;;;4132643;28;20174;-92
2022/10/03 07:05:50;;;;;;;3.83;2.08;;;14.20;99.90;;;;;;4132688;28;20180;-91
2022/10/03 07:08:22;;;;;;;8.48;1.85;;;14.60;99.90;;;;;;4149083;28;20177;-93
2022/10/03 07:10:34;;;;;;;2.92;1.90;;;15.00;99.90;;;;;;4148643;28;20201;-92
2022/10/03 07:12:43;;;;;;;4.03;1.70;;;14.80;99.90;;;;;;4132496;28;20208;-92
2022/10/03 07:15:10;;;;;;;4.68;1.90;;;15.00;99.90;;;;;;4132718;28;20177;-91
2022/10/03 07:17:21;;;;;;;3.08;1.90;;;15.00;99.90;;;;;;4148684;28;20208;-92
2022/10/03 07:19:41;;;;;;;5.32;2.33;;;14.90;99.90;;;;;;4131892;28;20247;-91
2022/10/03 07:22:00;;;;;;;2.33;1.90;;;14.70;99.90;;;;;;4132424;28;20185;-93
2022/10/03 07:24:08;;;;;;;2.92;2.10;;;14.50;99.90;;;;;;4148610;28;20180;-92
2022/10/03 07:26:28;;;;;;;5.10;2.30;;;14.40;99.90;;;;;;4132429;28;20173;-92
2022/10/03 07:28:47;;;;;;;3.35;2.35;;;14.40;99.90;;;;;;4132444;28;20296;-92
2022/10/03 07:30:54;;;;;;;4.88;2.83;;;14.20;99.90;;;;;;4132278;28;20201;-93
2022/10/03 07:33:40;;;;;;;13.25;3.33;;;14.20;99.90;;;;;;4132009;28;20220;-91
2022/10/03 07:39:01;;;;;;;10.15;2.85;;;14.10;99.90;;;;;;4148715;28;20181;-92
2022/10/03 07:41:31;;;;;;;10.13;2.88;;;13.90;99.90;;;;;;4148837;28;20173;-92
2022/10/03 07:43:37;;;;;;;5.43;3.05;;;13.90;99.90;;;;;;4132945;28;20185;-91
2022/10/03 07:45:45;;;;;;;5.97;3.72;;;14.20;99.90;;;;;;4133215;28;20208;-92
2022/10/03 07:48:08;;;;;;;9.90;3.10;;;14.80;99.90;;;;;;4148757;28;20227;-93
2022/10/03 07:50:45;;;;;;;5.68;2.70;;;15.00;99.90;;;;;;4132666;28;20200;-92
2022/10/03 07:53:23;;;;;;;3.30;2.38;;;15.40;99.90;;;;;;4132372;28;20220;-92
2022/10/03 07:55:38;;;;;;;3.38;2.30;;;16.40;99.90;;;;;;4133589;28;20182;-92
2022/10/03 07:57:56;;;;;;;5.07;3.08;;;17.40;99.90;;;;;;4136574;28;20233;-92
2022/10/03 08:00:49;;;;;;;3.85;2.33;;;18.00;99.90;;;;;;4164214;28;20235;-90
2022/10/03 08:03:07;;;;;;;4.90;2.33;;;18.30;99.90;;;;;;4124388;28;20189;-94
2022/10/03 08:05:26;;;;;;;4.32;2.33;;;18.90;99.90;;;;;;4148676;28;20238;-93
2022/10/03 08:07:37;;;;;;;3.42;2.47;;;19.40;99.90;;;;;;4134944;28;20177;-93
2022/10/03 08:09:59;;;;;;;7.30;2.03;;;20.30;99.90;;;;;;4134430;28;20201;-94
2022/10/03 08:12:30;;;;;;;3.75;2.55;;;21.00;99.90;;;;;;4151799;28;20181;-94
2022/10/03 08:14:36;;;;;;;7.25;2.47;;;21.30;99.90;;;;;;4136316;28;20184;-94
2022/10/03 08:16:58;;;;;;;4.63;2.40;;;21.40;99.90;;;;;;4150982;28;20711;-94
2022/10/03 08:19:22;;;;;;;5.32;2.40;;;21.80;99.90;;;;;;4135364;28;20170;-94
2022/10/03 08:21:47;;;;;;;7.85;2.50;;;22.70;99.90;;;;;;4132620;28;20182;-92
2022/10/03 08:24:17;;;;;;;4.72;3.05;;;22.90;99.90;;;;;;4135448;28;20285;-93
2022/10/03 08:26:56;;;;;;;4.72;2.90;;;23.70;99.90;;;;;;4150194;28;20268;-94
2022/10/03 08:29:31;;;;;;;7.68;3.10;;;24.20;99.90;;;;;;4128422;28;20533;-94
2022/10/03 08:32:11;;;;;;;5.43;2.88;;;24.20;99.90;;;;;;4151518;28;20172;-94
2022/10/03 08:34:45;;;;;;;4.75;2.70;;;24.00;99.90;;;;;;4151400;28;20188;-93
2022/10/03 08:37:54;;;;;;;7.43;3.20;;;23.80;99.90;;;;;;4153442;28;20590;-94
2022/10/03 08:40:52;;;;;;;;;;;;;;;;;;;;;
2022/10/03 08:46:06;;;;;;;8.82;3.38;;;25.00;99.90;;;;;;4102129;29;20182;-94
2022/10/03 08:49:10;;;;;;;9.63;3.80;;;24.80;99.90;;;;;;4088116;29;20203;-94
2022/10/03 08:52:01;;;;;;;12.43;4.40;;;24.80;99.90;;;;;;4087872;29;20185;-94
2022/10/03 08:54:32;;;;;;;9.05;3.35;;;24.70;99.90;;;;;;4086064;29;20604;-94
2022/10/03 08:58:11;;;;;;;9.55;3.92;;;25.00;99.90;;;;;;4099171;29;20187;-94
2022/10/03 09:01:17;;;;;;;14.10;4.30;;;25.20;99.90;;;;;;4054785;29;20205;-94
2022/10/03 09:31:02;;;;;;;;;;;;;;;;;;;;;
2022/10/03 09:34:41;;;;;;;;;;;;;;;;;;;;;
2022/10/03 09:37:21;;;;;;;10.07;3.22;;;22.90;99.90;;;;;;4025927;29;20588;-94
2022/10/03 09:49:58;;;;;;;15.43;3.45;;;22.00;99.90;;;;;;3989519;29;20331;-95
2022/10/03 10:03:40;;;;;;;;;;;;;;;;;;;;;
2022/10/03 10:06:23;;;;;;;17.10;4.45;;;20.90;99.90;;;;;;4067670;29;20542;-94
2022/10/03 10:16:09;;;;;;;11.27;3.05;;;19.90;99.90;;;;;;4123359;28;20188;-94
2022/10/03 10:18:49;;;;;;;;;;;;;;;;;;;;;
2022/10/03 10:25:15;;;;;;;16.02;3.53;;;19.70;99.90;;;;;;4117619;28;20182;-94
2022/10/03 10:38:14;;;;;;;11.02;2.60;;;19.70;99.90;;;;;;4069895;29;20192;-95
2022/10/03 10:48:33;;;;;;;;;;;;;;;;;;;;;
2022/10/03 10:51:59;;;;;;;;;;;;;;;;;;;;;
2022/10/03 10:54:39;;;;;;;11.77;3.13;;;20.00;99.90;;;;;;4022395;29;20202;-96
2022/10/03 10:57:00;;;;;;;11.50;2.17;;;20.20;99.90;;;;;;4084899;29;20636;-93
2022/10/03 10:59:43;;;;;;;11.35;2.40;;;20.10;99.90;;;;;;4069091;29;20267;-93
2022/10/03 11:02:59;;;;;;;7.57;2.42;;;19.90;99.90;;;;;;4072569;29;20187;-95
2022/10/03 11:05:16;;;;;;;15.02;3.22;;;20.00;99.90;;;;;;4070471;29;20207;-94
2022/10/03 11:08:16;;;;;;;15.38;3.08;;;19.90;99.90;;;;;;4084239;29;20188;-96
2022/10/03 11:13:51;;;;;;;14.18;3.50;;;19.80;99.90;;;;;;4043785;29;20258;-93
2022/10/03 11:23:07;;;;;;;17.02;3.83;;;20.30;99.90;;;;;;4079396;29;20239;-95
2022/10/03 11:25:49;;;;;;;16.60;4.32;;;20.50;99.90;;;;;;4121308;28;20188;-96
2022/10/03 11:32:11;;;;;;;;;;;;;;;;;;;;;
2022/10/03 11:39:04;;;;;;;;;;;;;;;;;;;;;
2022/10/03 11:45:45;;;;;;;;;;;;;;;;;;;;;
2022/10/03 12:02:16;;;;;;;7.93;1.60;;;20.60;99.90;;;;;;4053144;29;20252;-94
2022/10/03 12:04:28;;;;;;;8.85;2.13;;;20.10;99.90;;;;;;4057007;28;20619;-93
2022/10/03 12:13:51;;;;;;;7.18;2.20;;;20.30;99.90;;;;;;4144681;28;20307;-95
2022/10/03 12:16:08;;;;;;;;;;;;;;;;;;;;;
2022/10/03 12:21:42;;;;;;;10.77;2.22;;;19.90;99.90;;;;;;4147924;28;20275;-93
2022/10/03 12:24:22;;;;;;;10.18;2.00;;;20.10;99.90;;;;;;4129406;28;20207;-95
2022/10/03 12:26:54;;;;;;;12.68;2.20;;;19.90;99.90;;;;;;4135046;28;20173;-93
2022/10/03 12:29:54;;;;;;;;;;;;;;;;;;;;;
2022/10/03 12:33:00;;;;;;;;;;;;;;;;;;;;;
2022/10/03 12:39:18;;;;;;;;;;;;;;;;;;;;;
2022/10/03 12:42:18;;;;;;;13.35;1.75;;;20.40;99.90;;;;;;4118992;28;20182;-95
2022/10/03 12:45:49;;;;;;;;;;;;;;;;;;;;;
2022/10/03 12:48:20;;;;;;;;;;;;;;;;;;;;;
2022/10/03 12:51:34;;;;;;;10.88;1.60;;;20.60;99.90;;;;;;4150437;28;20258;-94
2022/10/03 12:54:25;;;;;;;14.68;2.08;;;20.70;99.90;;;;;;4152083;28;20596;-96
2022/10/03 13:00:26;;;;;;;12.02;2.10;;;20.70;99.90;;;;;;4151047;28;20209;-94
2022/10/03 13:02:57;;;;;;;7.22;1.80;;;20.70;99.90;;;;;;4122901;28;20194;-93
2022/10/03 13:05:36;;;;;;;7.20;1.60;;;20.80;99.90;;;;;;4150855;28;20643;-96
2022/10/03 13:08:49;;;;;;;3.40;1.27;;;21.10;99.90;;;;;;4151425;28;20702;-95
2022/10/03 13:11:58;;;;;;;11.13;1.83;;;21.10;99.90;;;;;;4113757;28;20255;-95
2022/10/03 13:21:51;;;;;;;12.88;2.05;;;20.40;99.90;;;;;;4068403;29;20196;-95
2022/10/03 13:24:41;;;;;;;;;;;;;;;;;;;;;
2022/10/03 13:28:25;;;;;;;10.38;1.83;;;20.50;99.90;;;;;;4064327;29;20179;-96
2022/10/03 13:38:19;;;;;;;9.38;1.98;;;21.20;99.90;;;;;;3958740;29;20204;-95
2022/10/03 13:55:05;;;;;;;;;;;;;;;;;;;;;
2022/10/03 13:57:59;;;;;;;4.97;1.30;;;21.00;99.90;;;;;;4049889;29;20554;-95
2022/10/03 14:01:10;;;;;;;6.82;1.50;;;20.80;99.90;;;;;;4040404;29;20217;-96
2022/10/03 14:04:09;;;;;;;7.75;1.77;;;21.00;99.90;;;;;;4042306;29;20268;-93
2022/10/03 14:06:15;;;;;;;8.93;1.85;;;20.90;99.90;;;;;;4026216;29;20178;-94
2022/10/03 14:08:23;;;;;;;8.88;1.80;;;21.00;99.90;;;;;;4077576;28;20182;-94
2022/10/03 14:10:58;;;;;;;10.38;2.13;;;21.10;99.90;;;;;;4152944;28;20251;-96
2022/10/03 14:13:18;;;;;;;10.35;1.90;;;21.50;99.90;;;;;;4153023;28;20216;-95
2022/10/03 14:15:43;;;;;;;8.23;1.95;;;21.40;99.90;;;;;;4137122;28;20176;-94
2022/10/03 14:18:17;;;;;;;5.03;1.35;;;21.00;99.90;;;;;;4136299;28;20182;-95
2022/10/03 14:20:57;;;;;;;9.95;1.38;;;20.90;99.90;;;;;;4138376;28;20288;-95
2022/10/03 14:23:09;;;;;;;5.35;1.02;;;21.10;99.90;;;;;;4137075;28;20515;-96
2022/10/03 14:25:33;;;;;;;5.53;1.40;;;20.80;99.90;;;;;;4136027;28;20251;-95
2022/10/03 14:27:56;;;;;;;10.30;1.40;;;20.70;99.90;;;;;;4137818;28;20177;-96
2022/10/03 14:30:15;;;;;;;8.48;1.52;;;20.60;99.90;;;;;;4137505;28;20208;-94
2022/10/03 14:32:23;;;;;;;9.43;2.00;;;20.30;99.90;;;;;;4136342;28;20713;-95
2022/10/03 14:34:45;;;;;;;6.10;1.60;;;20.30;99.90;;;;;;4153910;28;20598;-96
2022/10/03 14:37:29;;;;;;;10.98;1.77;;;20.50;99.90;;;;;;4136680;28;20221;-94
2022/10/03 14:39:46;;;;;;;10.30;1.60;;;20.50;99.90;;;;;;4118137;28;20209;-94
2022/10/03 14:41:55;;;;;;;13.13;2.35;;;20.60;99.90;;;;;;4152990;28;20177;-95
2022/10/03 14:44:02;;;;;;;12.57;2.03;;;20.40;99.90;;;;;;4153514;28;20637;-96
2022/10/03 15:05:27;;;;;;;9.27;1.80;;;19.70;99.90;;;;;;4102750;28;20258;-96
2022/10/03 15:08:38;;;;;;;;;;;;;;;;;;;;;
2022/10/03 15:15:40;;;;;;;;;;;;;;;;;;;;;
2022/10/03 15:36:35;;;;;;;;;;;;;;;;;;;;;
2022/10/03 15:39:46;;;;;;;7.55;1.45;;;19.30;99.90;;;;;;3947722;30;20198;-95
2022/10/03 15:42:50;;;;;;;;;;;;;;;;;;;;;
2022/10/03 15:48:20;;;;;;;8.73;1.35;;;19.60;99.90;;;;;;4100214;29;20279;-93
2022/10/03 15:50:40;;;;;;;9.23;2.03;;;19.50;99.90;;;;;;4100810;28;20203;-93
2022/10/03 15:52:59;;;;;;;7.97;1.45;;;19.30;99.90;;;;;;4100858;28;20238;-96
2022/10/03 15:55:04;;;;;;;8.75;1.50;;;19.10;99.90;;;;;;4100227;28;20202;-95
2022/10/03 15:57:07;;;;;;;10.77;1.70;;;19.20;99.90;;;;;;4100805;28;20174;-94
2022/10/03 15:59:17;;;;;;;8.10;1.58;;;19.20;99.90;;;;;;4100134;28;20179;-96
2022/10/03 16:01:28;;;;;;;10.48;1.50;;;19.40;99.90;;;;;;4100370;28;20182;-95
2022/10/03 16:03:43;;;;;;;14.05;2.25;;;19.60;99.90;;;;;;4101570;28;20563;-96
2022/10/03 16:06:22;;;;;;;16.48;1.65;;;19.70;99.90;;;;;;4102052;29;20588;-95
2022/10/03 16:08:28;;;;;;;9.70;1.60;;;19.60;99.90;;;;;;4068342;29;20188;-95
2022/10/03 16:10:37;;;;;;;8.98;1.77;;;19.40;99.90;;;;;;4084408;29;20595;-93
2022/10/03 16:13:04;;;;;;;11.80;1.85;;;19.20;99.90;;;;;;4085296;28;20278;-96
2022/10/03 16:15:33;;;;;;;10.00;1.63;;;19.00;99.90;;;;;;4085468;28;20215;-94
2022/10/03 16:17:51;;;;;;;13.95;1.75;;;18.70;99.90;;;;;;4084984;29;20199;-94
2022/10/03 16:19:57;;;;;;;12.43;1.90;;;18.30;99.90;;;;;;4100472;28;20206;-94
2022/10/03 16:22:12;;;;;;;8.18;1.73;;;18.10;99.90;;;;;;4084459;29;20168;-95
2022/10/03 16:24:34;;;;;;;9.23;1.58;;;18.10;99.90;;;;;;4085044;28;20190;-94
2022/10/03 16:26:53;;;;;;;7.95;1.60;;;18.00;99.90;;;;;;4084834;28;20190;-94
2022/10/03 16:29:00;;;;;;;7.15;1.80;;;18.00;99.90;;;;;;4084747;28;20203;-94
2022/10/03 16:31:29;;;;;;;11.35;2.03;;;17.80;99.90;;;;;;4084868;28;20206;-95
2022/10/03 16:33:46;;;;;;;11.70;2.25;;;17.70;99.90;;;;;;4099330;29;20695;-94
2022/10/03 16:36:03;;;;;;;9.68;2.00;;;17.60;99.90;;;;;;4116382;28;20542;-95
2022/10/03 16:38:15;;;;;;;11.30;2.38;;;17.50;99.90;;;;;;4100065;28;20557;-94
2022/10/03 16:40:22;;;;;;;9.80;1.98;;;17.50;99.90;;;;;;4100808;28;20199;-94
2022/10/03 16:42:27;;;;;;;8.60;2.42;;;17.40;99.90;;;;;;4100493;28;20183;-95